Time;durP1;ratioP1;P1;durP2;ratioP2;P2;SDS_P1;SDS_P2;PMS_P1;PMS_P2;Temp;Humidity;BMP_temperature;BMP_pressure;BME280_temperature;BME280_humidity;BME280_pressure;Samples;Min_cycle;Max_cycle;Signal;HPM_P1;HPM_P2
2022/09/22 03:50:30;;;;;;;4.15;3.50;;;;;;;7.44;100.00;100861.69;6521972;26;20080;-87
2022/09/22 03:53:34;;;;;;;4.15;3.15;;;;;;;7.47;100.00;100874.78;6531588;27;33578;-90
2022/09/22 03:56:37;;;;;;;4.30;3.80;;;;;;;7.44;100.00;100869.72;6553485;27;34225;-91
2022/09/22 03:59:40;;;;;;;5.10;3.33;;;;;;;7.43;100.00;100869.84;6547672;27;159322;-92
2022/09/22 04:02:43;;;;;;;8.05;3.70;;;;;;;7.37;100.00;100870.44;6553424;27;35378;-92
2022/09/22 04:05:50;;;;;;;5.15;3.95;;;;;;;7.41;100.00;100874.53;6552761;27;34272;-89
2022/09/22 04:08:53;;;;;;;5.80;3.42;;;;;;;7.46;100.00;100870.44;6554835;27;33644;-89
2022/09/22 04:11:55;;;;;;;4.43;3.50;;;;;;;7.52;100.00;100870.81;6558335;27;34081;-89
2022/09/22 04:14:58;;;;;;;4.50;3.50;;;;;;;7.54;100.00;100871.53;6573011;27;34864;-88
2022/09/22 04:18:01;;;;;;;4.55;3.28;;;;;;;7.50;100.00;100860.28;6572374;27;34405;-89
2022/09/22 04:21:03;;;;;;;5.97;3.70;;;;;;;7.52;100.00;100863.66;6572684;27;34953;-88
2022/09/22 04:24:10;;;;;;;5.05;3.40;;;;;;;7.55;100.00;100862.53;6555405;27;34171;-88
2022/09/22 04:27:12;;;;;;;6.22;3.80;;;;;;;7.56;100.00;100864.19;6552608;27;34057;-88
2022/09/22 04:30:23;;;;;;;5.20;3.65;;;;;;;7.59;100.00;100870.09;6552885;27;33897;-88
2022/09/22 04:33:25;;;;;;;3.55;3.25;;;;;;;7.55;100.00;100870.56;6552668;27;34646;-88
2022/09/22 04:36:28;;;;;;;6.20;4.05;;;;;;;7.58;100.00;100883.66;6552927;27;34182;-88
2022/09/22 04:39:30;;;;;;;6.57;4.18;;;;;;;7.60;100.00;100887.03;6552493;27;34202;-89
2022/09/22 04:42:33;;;;;;;4.07;3.12;;;;;;;7.67;100.00;100888.16;6553352;27;34359;-88
2022/09/22 04:45:36;;;;;;;6.28;3.50;;;;;;;7.73;100.00;100892.91;6553962;27;34422;-87
2022/09/22 04:48:41;;;;;;;5.20;3.87;;;;;;;7.76;100.00;100881.91;6553036;27;34575;-87
2022/09/22 04:51:44;;;;;;;5.82;3.85;;;;;;;7.76;100.00;100883.75;6553901;27;33907;-88
2022/09/22 04:54:47;;;;;;;4.37;3.97;;;;;;;7.81;100.00;100885.00;6579463;27;33995;-88
2022/09/22 04:57:52;;;;;;;7.03;4.28;;;;;;;7.78;100.00;100887.97;6579784;27;33703;-89
2022/09/22 05:00:59;;;;;;;6.20;4.45;;;;;;;7.80;100.00;100887.81;6579893;27;34667;-88
2022/09/22 05:04:02;;;;;;;6.55;4.07;;;;;;;7.79;100.00;100883.44;6561242;27;32789;-87
2022/09/22 05:07:05;;;;;;;5.45;4.03;;;;;;;7.73;100.00;100892.91;6580042;27;33674;-87
2022/09/22 05:10:10;;;;;;;5.68;4.25;;;;;;;7.71;100.00;100893.03;6560447;27;33045;-87
2022/09/22 05:13:12;;;;;;;7.18;4.57;;;;;;;7.71;100.00;100885.00;6580567;27;33792;-88
2022/09/22 05:16:16;;;;;;;7.25;4.57;;;;;;;7.74;100.00;100878.50;6580422;27;33998;-87
2022/09/22 05:19:20;;;;;;;6.95;4.90;;;;;;;7.80;100.00;100877.91;6580629;27;34725;-87
2022/09/22 05:22:22;;;;;;;6.72;4.47;;;;;;;7.88;100.00;100877.19;6580501;27;34212;-88
2022/09/22 05:25:26;;;;;;;7.82;4.40;;;;;;;8.03;100.00;100882.91;6580023;27;35138;-88
2022/09/22 05:28:29;;;;;;;5.97;4.05;;;;;;;8.13;100.00;100878.31;6579913;27;34823;-88
2022/09/22 05:31:32;;;;;;;6.03;3.92;;;;;;;8.24;100.00;100880.81;6580333;27;33595;-88
2022/09/22 05:34:34;;;;;;;12.82;4.22;;;;;;;8.38;100.00;100884.81;6581348;27;33841;-89
2022/09/22 05:37:37;;;;;;;7.62;4.32;;;;;;;8.49;100.00;100878.44;6583070;27;34129;-89
2022/09/22 05:40:40;;;;;;;6.87;4.40;;;;;;;8.59;100.00;100879.19;6582068;27;34753;-87
2022/09/22 05:43:43;;;;;;;5.97;4.40;;;;;;;8.73;100.00;100889.41;6563029;27;33572;-87
2022/09/22 05:46:45;;;;;;;11.93;4.03;;;;;;;8.83;99.57;100883.94;6583496;27;34512;-87
2022/09/22 05:49:48;;;;;;;6.87;4.20;;;;;;;9.00;99.09;100883.09;6588936;27;34056;-89
2022/09/22 05:53:01;;;;;;;6.35;4.15;;;;;;;9.17;98.37;100894.81;6589477;27;34105;-88
2022/09/22 05:56:03;;;;;;;5.90;4.03;;;;;;;9.28;97.19;100891.03;6584814;27;33926;-87
2022/09/22 05:59:06;;;;;;;6.03;4.22;;;;;;;9.38;95.82;100889.09;6584885;27;34072;-90
2022/09/22 06:02:10;;;;;;;6.12;4.20;;;;;;;9.53;94.87;100890.22;6581654;27;34541;-91
2022/09/22 06:05:27;;;;;;;6.60;4.22;;;;;;;9.64;93.97;100883.72;6583530;27;34068;-88
2022/09/22 06:08:30;;;;;;;7.82;4.00;;;;;;;9.87;93.04;100885.84;6585520;27;34416;-88
2022/09/22 06:11:33;;;;;;;5.53;4.00;;;;;;;9.99;91.88;100885.41;6591368;27;34493;-88
2022/09/22 06:14:36;;;;;;;4.97;3.40;;;;;;;10.08;90.76;100888.97;6565359;27;32150;-88
2022/09/22 06:17:38;;;;;;;4.50;3.60;;;;;;;10.21;89.34;100889.38;6581800;27;34285;-88
2022/09/22 06:20:42;;;;;;;4.40;3.20;;;;;;;10.35;88.57;100901.34;6591324;27;33911;-87
2022/09/22 06:23:44;;;;;;;5.82;3.50;;;;;;;10.54;86.98;100896.72;6571370;27;32611;-87
2022/09/22 06:26:47;;;;;;;3.87;3.45;;;;;;;10.72;86.33;100893.88;6591617;27;35032;-87
2022/09/22 06:29:50;;;;;;;4.05;3.70;;;;;;;10.87;85.94;100894.91;6578689;27;33475;-87
2022/09/22 06:32:54;;;;;;;5.62;3.70;;;;;;;10.92;84.02;100894.41;6600145;26;35415;-88
2022/09/22 06:35:57;;;;;;;4.37;3.55;;;;;;;11.04;83.92;100893.91;6573827;27;33453;-87
2022/09/22 06:39:00;;;;;;;5.37;3.50;;;;;;;11.13;82.78;100895.59;6599328;26;34104;-88
2022/09/22 06:42:04;;;;;;;6.35;3.50;;;;;;;11.20;82.80;100893.06;6600368;27;35412;-88
2022/09/22 06:45:07;;;;;;;5.43;3.42;;;;;;;11.37;82.03;100891.19;6581500;27;32232;-87
2022/09/22 06:48:11;;;;;;;4.53;3.15;;;;;;;11.40;80.86;100887.31;6600386;26;34527;-88
2022/09/22 06:51:13;;;;;;;4.75;3.20;;;;;;;11.59;79.84;100892.34;6596878;26;33851;-88
2022/09/22 06:54:17;;;;;;;5.28;3.37;;;;;;;11.67;80.06;100888.78;6590458;27;34433;-89
2022/09/22 06:57:19;;;;;;;7.20;3.30;;;;;;;11.81;79.09;100883.50;6584549;26;34036;-89
2022/09/22 07:00:23;;;;;;;4.30;2.80;;;;;;;12.05;77.84;100884.50;6563229;27;32750;-89
2022/09/22 07:03:25;;;;;;;4.03;2.80;;;;;;;12.23;77.56;100885.06;6580564;27;33214;-89
2022/09/22 07:06:28;;;;;;;2.95;2.65;;;;;;;12.29;74.71;100893.50;6591348;27;34895;-89
2022/09/22 07:09:31;;;;;;;4.50;2.97;;;;;;;12.30;74.18;100893.31;6581964;27;34651;-90
2022/09/22 07:12:34;;;;;;;3.10;2.80;;;;;;;12.37;74.37;100891.59;6563256;27;33778;-90
2022/09/22 07:15:37;;;;;;;4.00;2.80;;;;;;;12.39;74.52;100881.44;6582379;27;34565;-90
2022/09/22 07:18:43;;;;;;;3.85;3.05;;;;;;;12.41;72.70;100879.41;6581398;27;34110;-89
2022/09/22 07:21:46;;;;;;;3.62;2.87;;;;;;;12.67;72.76;100878.25;6627667;26;35067;-91
2022/09/22 07:24:49;;;;;;;4.00;3.00;;;;;;;12.96;71.78;100880.22;6665374;26;33663;-90
2022/09/22 07:27:53;;;;;;;3.75;3.00;;;;;;;13.23;70.68;100886.09;6666515;26;34284;-91
2022/09/22 07:31:04;;;;;;;3.20;2.90;;;;;;;13.74;70.32;100892.50;6666355;26;34063;-90
2022/09/22 07:42:05;;;;;;;3.35;3.03;;;;;;;14.23;65.58;100891.09;6644437;26;32337;-91
2022/09/22 07:45:11;;;;;;;3.05;2.70;;;;;;;13.98;66.63;100890.56;6663188;26;34130;-92
2022/09/22 07:51:37;;;;;;;3.15;2.70;;;;;;;13.81;68.88;100895.34;6664338;26;34538;-91
2022/09/22 07:54:40;;;;;;;7.50;3.20;;;;;;;13.61;69.62;100900.44;6665185;26;33983;-90
2022/09/22 07:57:45;;;;;;;2.87;2.65;;;;;;;13.53;70.03;100903.22;6640339;26;34789;-91
2022/09/22 08:00:48;;;;;;;5.47;2.97;;;;;;;13.38;70.77;100904.03;6665604;26;34215;-90
2022/09/22 08:03:51;;;;;;;5.28;3.10;;;;;;;13.40;71.46;100903.88;6640921;26;32817;-91
2022/09/22 08:06:55;;;;;;;3.72;2.80;;;;;;;13.32;72.00;100910.19;6641132;26;32477;-90
2022/09/22 08:09:58;;;;;;;3.42;3.10;;;;;;;13.48;72.13;100901.06;6666493;26;34319;-91
2022/09/22 08:13:03;;;;;;;3.17;2.87;;;;;;;13.64;71.09;100897.38;6679342;26;34154;-90
2022/09/22 08:16:06;;;;;;;3.03;2.70;;;;;;;13.82;71.37;100905.97;6668587;26;34562;-90
2022/09/22 08:19:11;;;;;;;3.67;2.80;;;;;;;14.05;69.07;100899.62;6649284;26;32616;-90
2022/09/22 08:22:14;;;;;;;4.68;3.22;;;;;;;14.19;68.28;100908.78;6652390;26;34419;-90
2022/09/22 08:25:16;;;;;;;3.10;2.75;;;;;;;14.48;69.43;100910.59;6665636;26;33664;-90
2022/09/22 08:28:19;;;;;;;3.87;2.90;;;;;;;14.79;68.11;100904.91;6645616;26;32488;-91
2022/09/22 08:31:24;;;;;;;2.90;2.60;;;;;;;14.95;64.93;100901.13;6668064;26;33752;-91
2022/09/22 08:34:27;;;;;;;3.40;3.10;;;;;;;15.14;63.93;100905.88;6664470;26;33296;-90
2022/09/22 08:37:31;;;;;;;4.57;3.10;;;;;;;15.12;64.08;100896.25;6661583;26;34586;-90
2022/09/22 08:40:37;;;;;;;5.55;2.47;;;;;;;15.55;64.21;100899.72;6655691;26;35350;-89
2022/09/22 08:43:55;;;;;;;2.90;2.70;;;;;;;15.90;63.67;100898.94;6662601;26;35455;-92
2022/09/22 08:47:01;;;;;;;2.50;2.30;;;;;;;15.90;59.96;100894.34;6662843;26;35485;-89
2022/09/22 08:53:46;;;;;;;2.42;2.12;;;;;;;16.29;56.96;100893.72;6643754;26;32559;-90
2022/09/22 08:57:10;;;;;;;2.08;1.87;;;;;;;16.55;54.46;100883.97;6663204;26;34589;-90
2022/09/22 09:00:19;;;;;;;2.28;2.08;;;;;;;16.45;52.33;100881.66;6663869;26;34872;-90
2022/09/22 09:03:42;;;;;;;2.58;2.08;;;;;;;16.19;54.25;100884.28;6643629;26;32205;-90
2022/09/22 09:07:06;;;;;;;4.03;1.92;;;;;;;16.53;55.32;100884.19;6663385;26;33947;-90
2022/09/22 09:10:33;;;;;;;2.40;2.20;;;;;;;17.05;54.69;100883.69;6663288;26;34050;-90
2022/09/22 09:13:52;;;;;;;2.87;2.20;;;;;;;17.11;51.80;100882.84;6663565;26;35250;-91
2022/09/22 09:17:02;;;;;;;;;;;;;;;17.40;52.20;100889.75;6664819;26;34071;-90
2022/09/22 09:20:25;;;;;;;6.37;2.37;;;;;;;17.17;50.46;100885.59;6664058;26;34419;-90
2022/09/22 09:23:42;;;;;;;3.58;2.00;;;;;;;17.19;50.99;100890.81;6662023;26;34766;-90
2022/09/22 09:27:13;;;;;;;4.35;2.12;;;;;;;17.16;50.39;100891.22;6664866;26;35084;-90
2022/09/22 09:30:18;;;;;;;3.17;2.00;;;;;;;17.14;50.05;100888.72;6665222;26;33564;-90
2022/09/22 09:33:30;;;;;;;2.25;2.08;;;;;;;17.22;51.80;100885.78;6664862;26;33869;-90
2022/09/22 09:36:51;;;;;;;7.65;2.35;;;;;;;17.12;52.78;100893.53;6664786;26;33785;-90
2022/09/22 09:39:55;;;;;;;2.17;1.98;;;;;;;17.60;50.81;100882.41;6665769;26;34011;-91
2022/09/22 09:43:04;;;;;;;2.10;2.00;;;;;;;17.75;50.30;100887.59;6646321;26;34125;-90
2022/09/22 09:49:53;;;;;;;3.40;2.30;;;;;;;17.92;50.08;100884.47;6562668;27;33662;-90
2022/09/22 09:52:58;;;;;;;2.05;1.85;;;;;;;17.48;48.83;100888.72;6553259;27;34058;-90
2022/09/22 09:56:01;;;;;;;3.12;1.77;;;;;;;17.02;50.18;100890.38;6553972;27;35376;-90
2022/09/22 10:02:30;;;;;;;1.60;1.45;;;;;;;16.57;52.38;100886.50;6580171;27;33393;-89
2022/09/22 10:05:36;;;;;;;2.15;2.05;;;;;;;16.25;51.34;100891.59;6581090;27;33805;-89
2022/09/22 10:08:45;;;;;;;1.92;1.83;;;;;;;16.18;52.84;100891.59;6580346;27;33562;-89
2022/09/22 10:11:58;;;;;;;4.47;1.90;;;;;;;16.00;54.00;100883.97;6581375;27;33901;-89
2022/09/22 10:15:00;;;;;;;2.08;1.73;;;;;;;16.08;54.75;100877.53;6579613;27;33748;-88
2022/09/22 10:18:22;;;;;;;2.03;1.90;;;;;;;16.09;53.07;100876.50;6559584;27;33237;-89
2022/09/22 10:21:26;;;;;;;2.70;2.03;;;;;;;16.48;51.88;100881.25;6580115;27;34430;-89
2022/09/22 10:24:33;;;;;;;3.50;2.10;;;;;;;17.05;50.80;100876.34;6579537;27;34531;-89
2022/09/22 10:27:36;;;;;;;2.60;2.30;;;;;;;17.59;49.22;100880.75;6579377;27;34642;-88
2022/09/22 10:30:40;;;;;;;3.25;1.90;;;;;;;17.96;47.29;100877.53;6560547;27;32350;-89
2022/09/22 10:33:54;;;;;;;1.90;1.80;;;;;;;18.40;46.30;100871.31;6566747;27;32493;-88
2022/09/22 10:36:59;;;;;;;2.35;1.90;;;;;;;18.46;47.69;100867.69;6582162;27;34242;-88
2022/09/22 10:40:02;;;;;;;2.80;1.90;;;;;;;18.90;45.32;100862.44;6578749;27;33939;-88
2022/09/22 10:43:34;;;;;;;3.80;1.85;;;;;;;19.14;45.05;100867.06;6578760;27;33712;-93
2022/09/22 10:47:21;;;;;;;2.42;1.92;;;;;;;19.18;44.76;100856.53;6579680;27;34652;-88
2022/09/22 10:50:47;;;;;;;1.60;1.50;;;;;;;18.92;45.09;100861.13;6534505;27;34296;-89
2022/09/22 10:54:14;;;;;;;3.12;2.05;;;;;;;18.58;46.42;100863.22;6579997;27;33676;-89
2022/09/22 10:57:42;;;;;;;3.75;1.67;;;;;;;18.41;45.37;100855.78;6580116;27;33923;-88
2022/09/22 11:00:46;;;;;;;2.25;1.92;;;;;;;18.96;46.33;100851.47;6579981;27;34054;-89
2022/09/22 11:04:10;;;;;;;1.60;1.50;;;;;;;19.89;40.97;100850.59;6559380;27;33347;-89
2022/09/22 11:14:56;;;;;;;1.70;1.60;;;;;;;20.00;41.97;100832.59;6588218;27;33714;-89
2022/09/22 11:18:27;;;;;;;1.87;1.65;;;;;;;21.45;38.05;100837.00;6592727;27;34784;-89
2022/09/22 11:21:30;;;;;;;1.90;1.80;;;;;;;22.68;36.13;100828.56;6599891;27;34039;-91
2022/09/22 11:25:06;;;;;;;1.70;1.60;;;;;;;23.68;36.58;100820.53;6582473;27;33822;-90
2022/09/22 11:28:46;;;;;;;1.92;1.67;;;;;;;23.60;33.78;100818.22;6591167;26;35345;-91
2022/09/22 11:32:01;;;;;;;1.50;1.40;;;;;;;22.04;35.58;100820.44;6580978;27;35100;-90
2022/09/22 11:35:35;;;;;;;1.62;1.52;;;;;;;20.79;36.75;100824.38;6579347;27;33942;-90
2022/09/22 11:39:11;;;;;;;1.75;1.65;;;;;;;21.66;35.79;100810.03;6580290;27;34424;-90
2022/09/22 11:42:24;;;;;;;1.50;1.40;;;;;;;22.10;33.41;100804.94;6579879;27;34013;-90
2022/09/22 11:45:39;;;;;;;1.23;1.12;;;;;;;23.42;33.03;100798.19;6578903;27;34257;-90
2022/09/22 11:49:15;;;;;;;1.67;1.58;;;;;;;26.26;28.55;100787.47;6579335;27;35001;-90
2022/09/22 11:52:47;;;;;;;1.35;1.25;;;;;;;28.48;25.73;100788.47;6579497;27;33790;-90
2022/09/22 11:56:27;;;;;;;1.40;1.30;;;;;;;28.86;25.07;100785.94;6584086;27;34081;-90
2022/09/22 11:59:42;;;;;;;1.17;1.17;;;;;;;27.93;25.55;100777.38;6581587;27;33960;-90
2022/09/22 12:02:57;;;;;;;1.65;1.40;;;;;;;27.41;26.68;100781.44;6580301;27;33779;-90
2022/09/22 12:06:09;;;;;;;2.85;1.62;;;;;;;28.69;24.92;100780.81;6561987;27;32739;-91
2022/09/22 12:09:50;;;;;;;1.30;1.20;;;;;;;29.54;23.86;100777.53;6561639;27;32400;-91
2022/09/22 12:12:55;;;;;;;1.58;1.15;;;;;;;30.56;23.03;100763.41;6568468;27;35280;-93
2022/09/22 12:15:58;;;;;;;1.87;1.30;;;;;;;31.48;21.40;100767.41;6580299;27;34167;-91
2022/09/22 12:19:30;;;;;;;3.53;1.00;;;;;;;32.47;20.37;100757.47;6580211;27;34544;-91
2022/09/22 12:23:04;;;;;;;1.20;1.10;;;;;;;33.59;19.80;100757.31;6579985;27;34261;-91
2022/09/22 12:26:12;;;;;;;2.47;1.50;;;;;;;33.36;19.35;100776.06;6578229;27;32763;-91
2022/09/22 12:29:18;;;;;;;1.48;1.37;;;;;;;33.54;22.24;100770.59;6580366;27;34219;-90
2022/09/22 12:32:38;;;;;;;2.55;1.70;;;;;;;32.63;23.18;100769.88;6581323;27;33758;-91
2022/09/22 12:35:42;;;;;;;3.58;1.95;;;;;;;27.95;28.80;100772.41;6598244;26;34168;-90
2022/09/22 12:38:45;;;;;;;2.30;1.70;;;;;;;25.31;33.26;100785.66;6587564;27;35024;-90
2022/09/22 12:42:03;;;;;;;2.95;1.75;;;;;;;22.21;39.97;100784.88;6579196;27;34987;-90
2022/09/22 12:45:26;;;;;;;1.77;1.67;;;;;;;20.25;48.70;100791.47;6559553;27;32327;-90
2022/09/22 12:48:34;;;;;;;2.42;2.05;;;;;;;18.91;51.04;100783.06;6578169;27;35428;-90
2022/09/22 12:51:37;;;;;;;3.22;2.00;;;;;;;18.07;55.22;100784.22;6579804;27;35334;-93
2022/09/22 12:54:40;;;;;;;2.40;2.00;;;;;;;17.57;55.82;100779.37;6580320;27;34152;-92
2022/09/22 12:57:45;;;;;;;3.37;1.75;;;;;;;17.40;56.81;100779.00;6578576;27;33480;-92
2022/09/22 13:00:53;;;;;;;3.90;2.20;;;;;;;17.20;57.76;100778.22;6560442;27;33842;-91
2022/09/22 13:04:25;;;;;;;3.30;2.00;;;;;;;17.69;56.71;100774.91;6577520;27;32642;-90
2022/09/22 13:07:39;;;;;;;3.95;2.67;;;;;;;22.52;43.22;100767.09;6560527;27;34666;-90
2022/09/22 13:10:51;;;;;;;3.75;2.10;;;;;;;26.45;34.67;100766.53;6560086;27;33428;-90
2022/09/22 13:13:53;;;;;;;2.60;2.40;;;;;;;29.19;30.33;100764.03;6580189;27;34402;-90
2022/09/22 13:16:56;;;;;;;2.75;1.62;;;;;;;30.83;26.97;100762.72;6579544;27;34222;-91
2022/09/22 13:20:01;;;;;;;2.25;1.77;;;;;;;30.87;26.31;100756.25;6579939;27;35147;-91
2022/09/22 13:23:11;;;;;;;2.50;2.15;;;;;;;30.42;27.09;100746.69;6578214;27;34091;-91
2022/09/22 13:26:15;;;;;;;2.00;1.80;;;;;;;31.66;25.55;100743.38;6576727;27;34655;-91
2022/09/22 13:29:21;;;;;;;2.20;1.50;;;;;;;31.97;24.89;100738.81;6576516;27;34759;-91
2022/09/22 13:32:26;;;;;;;2.37;1.90;;;;;;;33.14;23.33;100739.84;6576071;27;33164;-91
2022/09/22 13:35:36;;;;;;;2.87;1.62;;;;;;;31.90;24.79;100731.97;6579384;27;33746;-91
2022/09/22 13:38:49;;;;;;;1.70;1.60;;;;;;;33.07;24.16;100731.94;6577973;27;34559;-91
2022/09/22 13:41:58;;;;;;;3.53;1.90;;;;;;;31.31;25.37;100724.28;6577982;27;34229;-89
2022/09/22 13:45:17;;;;;;;3.97;1.90;;;;;;;33.12;24.04;100723.44;6579753;27;34491;-89
2022/09/22 13:48:20;;;;;;;4.90;1.70;;;;;;;33.44;23.63;100720.62;6576039;27;33093;-90
2022/09/22 13:51:27;;;;;;;1.90;1.80;;;;;;;32.28;24.59;100710.22;6580428;27;34352;-89
2022/09/22 13:54:34;;;;;;;1.98;1.87;;;;;;;31.71;24.52;100710.69;6579597;26;34387;-90
2022/09/22 13:57:37;;;;;;;2.22;1.77;;;;;;;33.13;23.54;100705.53;6580427;27;34795;-90
2022/09/22 14:00:47;;;;;;;2.58;2.05;;;;;;;31.91;24.31;100697.44;6580398;27;34041;-89
2022/09/22 14:04:25;;;;;;;2.08;1.87;;;;;;;31.90;24.64;100704.13;6586355;26;33723;-90
2022/09/22 14:07:31;;;;;;;1.90;1.80;;;;;;;32.53;24.02;100697.66;6581126;27;35047;-89
2022/09/22 14:10:34;;;;;;;5.45;2.12;;;;;;;30.80;24.94;100697.44;6580184;26;34871;-89
2022/09/22 14:13:57;;;;;;;2.12;1.92;;;;;;;28.66;27.75;100707.41;6576255;27;32527;-89
2022/09/22 14:17:07;;;;;;;3.85;2.30;;;;;;;25.64;31.92;100706.41;6579245;27;33610;-89
2022/09/22 14:20:14;;;;;;;3.42;2.03;;;;;;;22.82;37.47;100706.38;6579197;27;34339;-88
2022/09/22 14:23:31;;;;;;;2.27;1.97;;;;;;;20.97;39.82;100703.00;6577868;27;34283;-88
2022/09/22 14:26:37;;;;;;;2.45;1.95;;;;;;;20.09;41.41;100715.56;6558940;27;33417;-88
2022/09/22 14:29:48;;;;;;;3.33;2.08;;;;;;;19.03;43.27;100704.03;6577401;27;34403;-88
2022/09/22 14:32:55;;;;;;;5.55;2.30;;;;;;;18.33;45.09;100705.03;6578537;27;33872;-88
2022/09/22 14:36:01;;;;;;;2.78;2.15;;;;;;;17.88;46.65;100704.28;6560280;27;33138;-88
2022/09/22 14:39:04;;;;;;;4.60;2.47;;;;;;;17.82;47.26;100706.00;6580158;27;33799;-88
2022/09/22 14:42:28;;;;;;;2.55;2.35;;;;;;;17.90;49.67;100705.75;6579664;27;34173;-88
2022/09/22 14:45:31;;;;;;;4.10;2.60;;;;;;;17.67;49.28;100706.25;6578394;27;34979;-89
2022/09/22 14:48:37;;;;;;;3.45;2.67;;;;;;;17.55;50.44;100704.41;6578906;27;33657;-88
2022/09/22 14:51:46;;;;;;;3.47;2.90;;;;;;;17.32;50.42;100710.38;6579105;27;33573;-88
2022/09/22 14:54:49;;;;;;;3.35;2.62;;;;;;;17.16;52.29;100703.50;6560469;27;33247;-88
2022/09/22 14:57:51;;;;;;;3.72;2.70;;;;;;;16.69;54.31;100708.13;6558413;27;32325;-89
2022/09/22 15:04:27;;;;;;;5.78;2.78;;;;;;;16.66;54.66;100705.84;6579446;27;34473;-89
2022/09/22 15:07:47;;;;;;;5.53;3.30;;;;;;;16.59;54.50;100710.44;6579506;27;33667;-91
2022/09/22 15:10:55;;;;;;;3.05;2.75;;;;;;;16.62;54.36;100713.56;6580360;27;34034;-89
2022/09/22 15:13:58;;;;;;;5.40;3.08;;;;;;;16.44;56.04;100714.19;6578353;27;32820;-89
2022/09/22 15:20:30;;;;;;;4.35;2.65;;;;;;;16.42;55.49;100710.84;6567343;27;32375;-88
2022/09/22 15:23:40;;;;;;;3.23;2.83;;;;;;;16.20;58.15;100715.63;6585639;27;32889;-88
2022/09/22 15:26:43;;;;;;;3.80;2.80;;;;;;;15.93;59.98;100712.00;6591368;27;33855;-88
2022/09/22 15:29:53;;;;;;;2.90;2.47;;;;;;;15.86;59.16;100711.16;6597496;27;35423;-89
2022/09/22 15:32:56;;;;;;;3.55;2.80;;;;;;;15.70;59.90;100708.81;6560388;27;32661;-89
2022/09/22 15:36:01;;;;;;;4.20;2.70;;;;;;;15.62;60.83;100721.50;6580357;27;32604;-89
2022/09/22 15:39:12;;;;;;;2.90;2.60;;;;;;;15.41;62.03;100708.03;6560169;27;34310;-93
2022/09/22 15:42:14;;;;;;;3.15;2.70;;;;;;;15.30;64.89;100714.87;6580328;27;33810;-90
2022/09/22 15:45:22;;;;;;;3.97;2.70;;;;;;;15.18;62.56;100705.59;6579794;27;34002;-89
2022/09/22 15:48:33;;;;;;;4.45;2.80;;;;;;;15.14;64.41;100709.75;6579601;27;33930;-89
2022/09/22 15:51:36;;;;;;;4.00;2.42;;;;;;;15.10;63.91;100722.06;6559993;27;33412;-89
2022/09/22 15:54:40;;;;;;;3.80;2.87;;;;;;;15.08;63.78;100716.00;6578530;27;32415;-88
2022/09/22 15:57:49;;;;;;;5.65;3.00;;;;;;;15.11;63.52;100727.28;6579916;27;34707;-89
